createdAt,value
2023-01-20T00:01:09.579Z,50.10
2023-01-20T00:03:36.420Z,50.10
2023-01-20T00:06:03.273Z,50.20
2023-01-20T00:08:29.851Z,50.50
2023-01-20T00:10:56.867Z,50.00
2023-01-20T00:13:23.901Z,50.20
2023-01-20T00:15:50.530Z,50.40
2023-01-20T00:18:17.219Z,50.00
2023-01-20T00:20:43.828Z,50.10
2023-01-20T00:23:10.470Z,50.30
2023-01-20T00:25:37.124Z,50.10
2023-01-20T00:28:04.052Z,50.40
2023-01-20T00:30:30.893Z,50.40
2023-01-20T00:32:57.537Z,50.10
2023-01-20T00:35:24.170Z,50.40
2023-01-20T00:37:50.759Z,50.30
2023-01-20T00:40:17.339Z,50.00
2023-01-20T00:42:43.964Z,50.30
2023-01-20T00:45:10.887Z,50.40
2023-01-20T00:47:38.101Z,50.20
2023-01-20T00:50:05.088Z,50.40
2023-01-20T00:52:31.797Z,50.40
2023-01-20T00:54:58.355Z,50.10
2023-01-20T00:57:24.920Z,50.20
2023-01-20T00:59:51.458Z,50.50
2023-01-20T01:02:18.048Z,50.10
2023-01-20T01:04:44.753Z,50.30
2023-01-20T01:07:11.343Z,50.40
2023-01-20T01:09:37.946Z,50.10
2023-01-20T01:12:04.729Z,50.40
2023-01-20T01:14:32.349Z,50.20
2023-01-20T01:16:59.054Z,50.20
2023-01-20T01:19:25.712Z,50.20
2023-01-20T01:21:52.247Z,50.70
2023-01-20T01:24:18.881Z,50.20
2023-01-20T01:26:45.436Z,50.30
2023-01-20T01:29:12.127Z,50.40
2023-01-20T01:31:39.099Z,50.20
2023-01-20T01:34:05.812Z,50.60
2023-01-20T01:36:32.376Z,50.60
2023-01-20T01:38:59.387Z,50.40
2023-01-20T01:41:26.159Z,50.40
2023-01-20T01:44:09.676Z,50.40
2023-01-20T01:46:36.761Z,50.40
2023-01-20T01:49:12.059Z,50.50
2023-01-20T01:51:40.197Z,50.40
2023-01-20T01:54:13.184Z,50.30
2023-01-20T01:56:41.773Z,50.40
2023-01-20T01:59:08.925Z,50.40
2023-01-20T02:01:36.356Z,50.10
2023-01-20T02:04:23.383Z,50.30
2023-01-20T02:06:51.745Z,50.40
2023-01-20T02:09:18.645Z,50.30
2023-01-20T02:11:48.672Z,50.50
2023-01-20T02:14:16.595Z,50.40
2023-01-20T02:16:51.808Z,50.20
2023-01-20T02:19:21.346Z,50.50
2023-01-20T02:22:05.738Z,50.60
2023-01-20T02:24:51.168Z,50.20
2023-01-20T02:27:24.206Z,50.30
2023-01-20T02:29:56.925Z,50.30
2023-01-20T02:32:29.682Z,50.00
2023-01-20T02:34:59.098Z,50.20
2023-01-20T02:37:28.105Z,50.30
2023-01-20T02:40:00.882Z,50.20
2023-01-20T02:42:32.731Z,50.40
2023-01-20T02:45:18.249Z,50.40
2023-01-20T02:47:51.511Z,50.10
2023-01-20T02:50:21.773Z,50.30
2023-01-20T02:52:52.942Z,50.40
2023-01-20T02:55:24.004Z,50.30
2023-01-20T02:57:54.501Z,50.50
2023-01-20T03:00:26.989Z,50.30
2023-01-20T03:02:55.496Z,50.20
2023-01-20T03:05:33.257Z,50.50
2023-01-20T03:08:02.447Z,50.30
2023-01-20T03:10:31.833Z,50.40
2023-01-20T03:13:00.890Z,50.60
2023-01-20T03:15:33.234Z,50.80
2023-01-20T03:17:59.833Z,50.20
2023-01-20T03:20:26.427Z,50.40
2023-01-20T03:22:53.017Z,50.20
2023-01-20T03:25:20.123Z,50.50
2023-01-20T03:27:47.203Z,50.30
2023-01-20T03:30:14.520Z,50.00
2023-01-20T03:32:42.960Z,50.20
2023-01-20T03:35:09.745Z,51.10
2023-01-20T03:37:36.420Z,50.30
2023-01-20T03:40:03.201Z,50.10
2023-01-20T03:42:41.038Z,50.30
2023-01-20T03:45:07.830Z,50.40
2023-01-20T03:47:47.771Z,50.20
2023-01-20T03:50:31.680Z,50.20
2023-01-20T03:53:01.696Z,50.30
2023-01-20T03:55:47.141Z,50.00
2023-01-20T03:58:20.600Z,50.40
2023-01-20T04:00:48.697Z,50.10
2023-01-20T04:03:17.584Z,50.10
2023-01-20T04:05:45.014Z,50.40
2023-01-20T04:08:12.917Z,49.90
2023-01-20T04:10:41.160Z,50.20
2023-01-20T04:13:07.776Z,50.20
2023-01-20T04:15:36.327Z,50.00
2023-01-20T04:18:17.064Z,50.00
2023-01-20T04:20:44.541Z,50.10
2023-01-20T04:23:15.821Z,50.00
2023-01-20T04:25:42.638Z,49.90
2023-01-20T04:28:09.193Z,50.00
2023-01-20T04:30:35.885Z,49.90
2023-01-20T04:33:02.500Z,50.70
2023-01-20T04:35:29.092Z,50.00
2023-01-20T04:37:55.637Z,50.00
2023-01-20T04:40:22.226Z,49.90
2023-01-20T04:42:48.803Z,50.00
2023-01-20T04:45:16.668Z,50.10
2023-01-20T04:47:43.799Z,50.10
2023-01-20T04:50:11.222Z,50.00
2023-01-20T04:52:37.862Z,50.00
2023-01-20T04:55:04.603Z,49.60
2023-01-20T04:57:31.177Z,49.60
2023-01-20T04:59:57.786Z,49.50
2023-01-20T05:02:24.430Z,49.60
2023-01-20T05:04:51.107Z,49.60
2023-01-20T05:07:17.718Z,49.60
2023-01-20T05:09:44.332Z,49.60
2023-01-20T05:12:10.951Z,49.60
2023-01-20T05:14:37.514Z,49.70
2023-01-20T05:17:04.174Z,49.70
2023-01-20T05:19:30.749Z,49.80
2023-01-20T05:21:59.001Z,50.40
2023-01-20T05:24:25.641Z,49.50
2023-01-20T05:26:52.388Z,49.40
2023-01-20T05:29:18.985Z,49.40
2023-01-20T05:31:45.643Z,49.70
2023-01-20T05:34:12.218Z,49.50
2023-01-20T05:36:38.834Z,49.70
2023-01-20T05:39:05.597Z,49.20
2023-01-20T05:41:32.177Z,49.20
2023-01-20T05:43:58.731Z,49.60
2023-01-20T05:46:25.367Z,49.40
2023-01-20T05:48:51.937Z,49.30
2023-01-20T05:51:18.610Z,50.00
2023-01-20T05:53:45.173Z,49.70
2023-01-20T05:56:15.761Z,49.50
2023-01-20T05:58:42.511Z,49.30
2023-01-20T06:01:11.006Z,49.40
2023-01-20T06:03:38.772Z,49.80
2023-01-20T06:06:06.886Z,49.30
2023-01-20T06:08:33.928Z,49.30
2023-01-20T06:11:00.485Z,49.30
2023-01-20T06:13:27.042Z,49.90
2023-01-20T06:15:54.345Z,49.90
2023-01-20T06:18:21.580Z,49.60
2023-01-20T06:20:48.244Z,50.10
2023-01-20T06:23:14.921Z,50.30
2023-01-20T06:25:42.080Z,49.90
2023-01-20T06:28:08.830Z,49.80
2023-01-20T06:30:35.593Z,49.50
2023-01-20T06:33:02.242Z,49.60
2023-01-20T06:35:28.784Z,49.40
2023-01-20T06:37:57.827Z,49.30
2023-01-20T06:40:24.368Z,49.40
2023-01-20T06:42:50.938Z,49.50
2023-01-20T06:45:17.501Z,49.60
2023-01-20T06:47:44.111Z,50.20
2023-01-20T06:50:10.813Z,49.20
2023-01-20T06:52:37.443Z,49.40
2023-01-20T06:55:04.102Z,50.10
2023-01-20T06:57:30.791Z,48.90
2023-01-20T06:59:58.827Z,49.50
2023-01-20T07:02:25.477Z,49.70
2023-01-20T07:04:52.742Z,49.10
2023-01-20T07:07:19.385Z,49.10
2023-01-20T07:09:45.929Z,49.80
2023-01-20T07:12:12.478Z,49.50
2023-01-20T07:14:39.118Z,49.40
2023-01-20T07:17:08.627Z,49.50
2023-01-20T07:19:35.193Z,49.80
2023-01-20T07:22:01.715Z,49.30
2023-01-20T07:24:28.282Z,49.10
2023-01-20T07:26:54.840Z,49.10
2023-01-20T07:29:21.456Z,49.30
2023-01-20T07:31:48.089Z,49.60
2023-01-20T07:34:14.741Z,49.40
2023-01-20T07:36:41.333Z,49.10
2023-01-20T07:39:09.460Z,49.30
2023-01-20T07:41:36.145Z,49.90
2023-01-20T07:44:02.784Z,49.50
2023-01-20T07:46:29.427Z,49.40
2023-01-20T07:48:56.292Z,49.10
2023-01-20T07:51:22.911Z,49.10
2023-01-20T07:53:51.546Z,49.10
2023-01-20T07:56:19.619Z,48.80
2023-01-20T07:58:47.507Z,49.00
2023-01-20T08:01:19.076Z,48.90
2023-01-20T08:03:46.074Z,48.90
2023-01-20T08:06:13.765Z,49.10
2023-01-20T08:08:40.354Z,49.40
2023-01-20T08:11:07.958Z,48.90
2023-01-20T08:13:34.863Z,50.00
2023-01-20T08:16:02.358Z,49.10
2023-01-20T08:18:29.130Z,50.20
2023-01-20T08:20:55.686Z,49.70
2023-01-20T08:23:22.337Z,49.40
2023-01-20T08:25:48.883Z,49.70
2023-01-20T08:28:15.502Z,48.90
2023-01-20T08:30:42.170Z,49.20
2023-01-20T08:33:08.875Z,49.00
2023-01-20T08:35:36.254Z,49.00
2023-01-20T08:38:03.883Z,49.10
2023-01-20T08:40:30.506Z,49.00
2023-01-20T08:42:57.144Z,49.00
2023-01-20T08:45:23.870Z,49.40
2023-01-20T08:47:50.442Z,49.00
2023-01-20T08:50:17.784Z,49.20
2023-01-20T08:52:44.521Z,49.20
2023-01-20T08:55:11.360Z,48.90
2023-01-20T08:57:40.324Z,49.20
2023-01-20T09:00:07.930Z,49.00
2023-01-20T09:02:34.547Z,49.30
2023-01-20T09:05:01.157Z,49.10
2023-01-20T09:07:27.731Z,49.10
2023-01-20T09:09:54.517Z,48.80
2023-01-20T09:12:21.104Z,49.00
2023-01-20T09:14:47.738Z,49.20
2023-01-20T09:17:14.853Z,49.50
2023-01-20T09:19:41.487Z,48.80
2023-01-20T09:22:08.152Z,48.90
2023-01-20T09:24:34.715Z,49.00
2023-01-20T09:27:01.281Z,48.90
2023-01-20T09:29:27.950Z,48.80
2023-01-20T09:31:58.704Z,48.90
2023-01-20T09:34:26.463Z,48.60
2023-01-20T09:36:53.644Z,48.80
2023-01-20T09:39:38.950Z,49.00
2023-01-20T09:42:32.995Z,49.00
2023-01-20T09:45:10.463Z,48.40
2023-01-20T09:47:41.849Z,48.70
2023-01-20T09:50:30.165Z,48.70
2023-01-20T09:53:04.250Z,48.80
2023-01-20T09:55:51.308Z,48.60
2023-01-20T09:58:45.173Z,49.10
2023-01-20T10:01:18.441Z,49.00
2023-01-20T10:03:47.081Z,49.10
2023-01-20T10:06:17.438Z,49.20
2023-01-20T10:09:04.558Z,48.80
2023-01-20T10:11:34.974Z,49.10
2023-01-20T10:14:12.605Z,48.80
2023-01-20T10:16:45.559Z,48.60
2023-01-20T10:19:14.838Z,49.20
2023-01-20T10:21:44.073Z,49.10
2023-01-20T10:24:13.522Z,49.30
2023-01-20T10:26:40.083Z,48.80
2023-01-20T10:29:13.054Z,48.90
2023-01-20T10:31:44.668Z,49.00
2023-01-20T10:34:18.698Z,48.90
2023-01-20T10:36:50.482Z,48.80
2023-01-20T10:39:30.542Z,48.70
2023-01-20T10:42:11.409Z,48.70
2023-01-20T10:44:38.038Z,48.90
2023-01-20T10:47:22.992Z,48.60
2023-01-20T10:50:08.854Z,49.30
2023-01-20T10:52:35.428Z,48.90
2023-01-20T10:55:05.142Z,48.70
2023-01-20T10:57:32.563Z,49.00
2023-01-20T11:00:00.618Z,48.90
2023-01-20T11:02:35.062Z,49.20
2023-01-20T11:05:02.900Z,49.20
2023-01-20T11:07:31.239Z,49.20
2023-01-20T11:09:59.541Z,49.20
2023-01-20T11:12:28.618Z,49.10
2023-01-20T11:14:56.995Z,49.00
2023-01-20T11:17:23.564Z,48.80
2023-01-20T11:19:54.277Z,49.00
2023-01-20T11:22:23.944Z,49.10
2023-01-20T11:24:53.734Z,49.10
2023-01-20T11:27:21.992Z,48.80
2023-01-20T11:29:50.106Z,48.40
2023-01-20T11:32:29.083Z,48.90
2023-01-20T11:34:56.440Z,49.00
2023-01-20T11:37:25.681Z,49.10
2023-01-20T11:39:55.258Z,48.90
2023-01-20T11:42:26.261Z,49.10
2023-01-20T11:44:52.906Z,49.10
2023-01-20T11:47:25.812Z,48.80
2023-01-20T11:50:05.305Z,48.90
2023-01-20T11:52:32.819Z,48.90
2023-01-20T11:55:18.692Z,49.10
2023-01-20T11:57:58.734Z,48.90
2023-01-20T12:00:37.429Z,49.00
2023-01-20T12:03:10.382Z,48.60
2023-01-20T12:05:54.802Z,48.60
2023-01-20T12:08:26.645Z,48.40
2023-01-20T12:10:55.491Z,48.50
2023-01-20T12:13:28.019Z,48.70
2023-01-20T12:15:55.937Z,49.10
2023-01-20T12:18:33.817Z,48.50
2023-01-20T12:21:10.564Z,48.20
2023-01-20T12:23:46.453Z,48.70
2023-01-20T12:26:15.017Z,48.60
2023-01-20T12:28:53.928Z,48.80
2023-01-20T12:31:24.121Z,48.50
2023-01-20T12:33:53.295Z,49.10
2023-01-20T12:36:20.029Z,50.00
2023-01-20T12:39:04.785Z,49.30
2023-01-20T12:41:34.443Z,49.10
2023-01-20T12:44:10.361Z,48.70
2023-01-20T12:46:36.958Z,48.70
2023-01-20T12:49:23.607Z,48.80
2023-01-20T12:52:02.580Z,49.30
2023-01-20T12:54:49.234Z,49.20
2023-01-20T12:57:28.356Z,50.50
2023-01-20T13:00:03.131Z,52.30
2023-01-20T13:02:41.740Z,52.40
2023-01-20T13:05:44.436Z,49.80
2023-01-20T13:08:36.655Z,52.50
2023-01-20T13:11:16.020Z,51.70
2023-01-20T13:14:00.127Z,52.00
2023-01-20T13:16:36.873Z,52.20
2023-01-20T13:19:16.721Z,52.30
2023-01-20T13:21:43.329Z,51.90
2023-01-20T13:24:18.845Z,51.20
2023-01-20T13:26:49.115Z,52.30
2023-01-20T13:29:34.506Z,52.40
2023-01-20T13:32:01.179Z,51.50
2023-01-20T13:34:27.806Z,52.40
2023-01-20T13:37:03.715Z,52.20
2023-01-20T13:39:30.415Z,51.90
2023-01-20T13:41:57.047Z,52.30
2023-01-20T13:44:42.164Z,52.50
2023-01-20T13:47:10.209Z,52.30
2023-01-20T13:49:50.684Z,52.70
2023-01-20T13:52:36.348Z,52.00
2023-01-20T13:55:03.166Z,52.50
2023-01-20T13:57:33.849Z,52.90
2023-01-20T14:00:00.548Z,51.90
2023-01-20T14:02:29.122Z,53.10
2023-01-20T14:04:56.287Z,53.00
2023-01-20T14:07:23.765Z,52.50
2023-01-20T14:09:54.460Z,52.30
2023-01-20T14:12:21.135Z,51.90
2023-01-20T14:14:50.246Z,52.10
2023-01-20T14:17:17.886Z,53.00
2023-01-20T14:19:48.731Z,52.20
2023-01-20T14:22:18.319Z,53.30
2023-01-20T14:24:46.500Z,52.90
2023-01-20T14:27:22.280Z,52.20
2023-01-20T14:29:49.875Z,52.60
2023-01-20T14:32:28.295Z,52.80
2023-01-20T14:34:55.375Z,51.60
2023-01-20T14:37:27.398Z,52.00
2023-01-20T14:39:56.702Z,53.00
2023-01-20T14:42:23.535Z,51.80
2023-01-20T14:44:51.135Z,52.60
2023-01-20T14:47:19.362Z,53.00
2023-01-20T14:49:47.611Z,52.20
2023-01-20T14:52:21.914Z,53.40
2023-01-20T14:54:51.790Z,53.40
2023-01-20T14:57:18.510Z,51.90
2023-01-20T14:59:45.200Z,53.60
2023-01-20T15:02:18.508Z,53.60
2023-01-20T15:04:45.209Z,52.20
2023-01-20T15:07:17.332Z,53.60
2023-01-20T15:09:50.240Z,52.60
2023-01-20T15:12:39.506Z,53.00
2023-01-20T15:15:14.122Z,53.20
2023-01-20T15:17:59.847Z,53.00
2023-01-20T15:20:27.552Z,51.90
2023-01-20T15:22:54.097Z,53.40
2023-01-20T15:25:20.683Z,53.40
2023-01-20T15:27:52.155Z,52.60
2023-01-20T15:30:20.844Z,52.20
2023-01-20T15:32:48.378Z,52.80
2023-01-20T15:35:15.833Z,53.60
2023-01-20T15:37:42.917Z,52.60
2023-01-20T15:40:14.059Z,52.90
2023-01-20T15:42:41.789Z,52.90
2023-01-20T15:45:09.135Z,51.80
2023-01-20T15:47:35.687Z,52.30
2023-01-20T15:50:02.337Z,52.60
2023-01-20T15:52:29.002Z,52.00
2023-01-20T15:54:55.569Z,52.20
2023-01-20T15:57:22.241Z,53.10
2023-01-20T15:59:50.130Z,51.60
2023-01-20T16:02:17.954Z,52.20
2023-01-20T16:04:44.609Z,52.90
2023-01-20T16:07:12.922Z,52.00
2023-01-20T16:09:39.818Z,53.00
2023-01-20T16:12:06.551Z,52.80
2023-01-20T16:14:33.107Z,52.20
2023-01-20T16:16:59.656Z,52.10
2023-01-20T16:19:26.329Z,52.40
2023-01-20T16:21:52.929Z,53.10
2023-01-20T16:24:19.496Z,52.90
2023-01-20T16:26:46.746Z,53.00
2023-01-20T16:29:13.444Z,52.50
2023-01-20T16:31:40.161Z,52.60
2023-01-20T16:34:07.902Z,51.90
2023-01-20T16:36:34.527Z,51.80
2023-01-20T16:39:01.119Z,52.90
2023-01-20T16:41:28.760Z,52.00
2023-01-20T16:43:55.384Z,51.30
2023-01-20T16:46:26.824Z,51.10
2023-01-20T16:48:59.138Z,50.60
2023-01-20T16:51:26.538Z,50.80
2023-01-20T16:53:53.509Z,51.10
2023-01-20T16:56:21.404Z,51.20
2023-01-20T16:58:48.365Z,51.20
2023-01-20T17:01:15.172Z,51.80
2023-01-20T17:03:42.412Z,51.00
2023-01-20T17:06:13.032Z,51.30
2023-01-20T17:08:39.768Z,52.20
2023-01-20T17:11:06.365Z,52.30
2023-01-20T17:13:32.956Z,51.90
2023-01-20T17:15:59.531Z,52.00
2023-01-20T17:18:26.163Z,52.30
2023-01-20T17:20:52.718Z,51.70
2023-01-20T17:23:19.320Z,51.20
2023-01-20T17:25:46.002Z,51.80
2023-01-20T17:28:12.601Z,51.00
2023-01-20T17:30:39.238Z,52.30
2023-01-20T17:33:05.849Z,51.90
2023-01-20T17:35:32.456Z,51.20
2023-01-20T17:37:59.042Z,51.70
2023-01-20T17:40:25.641Z,51.30
2023-01-20T17:42:52.772Z,51.20
2023-01-20T17:45:19.610Z,51.10
2023-01-20T17:47:49.361Z,51.20
2023-01-20T17:50:16.366Z,51.40
2023-01-20T17:52:43.029Z,51.10
2023-01-20T17:55:10.523Z,52.00
2023-01-20T17:57:37.090Z,51.20
2023-01-20T18:00:05.438Z,50.80
2023-01-20T18:02:32.029Z,51.20
2023-01-20T18:04:59.445Z,51.80
2023-01-20T18:07:26.030Z,50.70
2023-01-20T18:09:52.675Z,51.10
2023-01-20T18:12:21.359Z,51.00
2023-01-20T18:14:47.956Z,50.90
2023-01-20T18:17:14.656Z,50.80
2023-01-20T18:19:41.218Z,52.00
2023-01-20T18:22:10.277Z,51.90
2023-01-20T18:24:36.873Z,52.20
2023-01-20T18:27:03.581Z,52.60
2023-01-20T18:29:30.155Z,52.90
2023-01-20T18:31:58.177Z,53.50
2023-01-20T18:34:25.070Z,53.40
2023-01-20T18:36:51.930Z,53.40
2023-01-20T18:39:19.696Z,54.90
2023-01-20T18:41:46.592Z,55.20
2023-01-20T18:44:13.481Z,54.40
2023-01-20T18:46:40.288Z,53.80
2023-01-20T18:49:09.611Z,53.80
2023-01-20T18:51:36.514Z,54.40
2023-01-20T18:54:05.726Z,54.40
2023-01-20T18:56:35.373Z,53.80
2023-01-20T18:59:02.923Z,53.50
2023-01-20T19:01:32.309Z,53.40
2023-01-20T19:03:59.232Z,53.60
2023-01-20T19:06:27.182Z,53.40
2023-01-20T19:08:55.115Z,53.60
2023-01-20T19:11:23.095Z,53.80
2023-01-20T19:13:51.250Z,53.70
2023-01-20T19:16:18.843Z,53.60
2023-01-20T19:18:49.534Z,54.00
2023-01-20T19:21:16.139Z,54.00
2023-01-20T19:24:28.817Z,53.90
2023-01-20T19:26:55.535Z,54.20
2023-01-20T19:29:22.134Z,53.80
2023-01-20T19:31:51.518Z,53.80
2023-01-20T19:34:18.233Z,54.10
2023-01-20T19:36:44.809Z,53.80
2023-01-20T19:39:11.669Z,54.10
2023-01-20T19:41:39.475Z,54.10
2023-01-20T19:44:07.700Z,54.30
2023-01-20T19:46:35.538Z,54.00
2023-01-20T19:49:02.507Z,54.40
2023-01-20T19:51:31.109Z,54.00
2023-01-20T19:53:58.474Z,54.20
2023-01-20T19:56:25.987Z,54.60
2023-01-20T19:58:53.425Z,54.20
2023-01-20T20:01:27.722Z,54.40
2023-01-20T20:03:55.838Z,54.10
2023-01-20T20:06:32.604Z,54.30
2023-01-20T20:09:07.090Z,54.70
2023-01-20T20:11:34.337Z,54.20
2023-01-20T20:14:02.018Z,54.40
2023-01-20T20:16:31.030Z,54.10
2023-01-20T20:18:58.275Z,54.20
2023-01-20T20:21:25.359Z,54.50
2023-01-20T20:23:52.826Z,53.80
2023-01-20T20:26:20.288Z,55.00
2023-01-20T20:28:47.007Z,54.30
2023-01-20T20:31:13.755Z,54.30
2023-01-20T20:33:40.490Z,54.20
2023-01-20T20:36:07.754Z,54.40
2023-01-20T20:38:36.581Z,54.70
2023-01-20T20:41:04.069Z,54.10
2023-01-20T20:43:30.898Z,54.40
2023-01-20T20:46:00.830Z,54.60
2023-01-20T20:48:27.582Z,54.40
2023-01-20T20:50:54.359Z,54.50
2023-01-20T20:53:21.169Z,54.70
2023-01-20T20:55:47.792Z,54.70
2023-01-20T20:58:14.598Z,54.50
2023-01-20T21:00:41.215Z,54.60
2023-01-20T21:03:08.404Z,54.50
2023-01-20T21:05:35.352Z,54.30
2023-01-20T21:08:04.673Z,54.50
2023-01-20T21:10:31.485Z,54.30
2023-01-20T21:12:58.115Z,54.40
2023-01-20T21:15:24.805Z,54.00
2023-01-20T21:17:51.555Z,54.20
2023-01-20T21:20:18.411Z,54.70
2023-01-20T21:22:45.092Z,54.10
2023-01-20T21:25:11.715Z,54.30
2023-01-20T21:27:38.332Z,54.70
2023-01-20T21:30:05.175Z,54.20
2023-01-20T21:32:31.742Z,54.30
2023-01-20T21:35:01.785Z,54.40
2023-01-20T21:37:28.377Z,54.70
2023-01-20T21:39:54.935Z,54.30
2023-01-20T21:42:21.629Z,54.40
2023-01-20T21:44:48.176Z,54.50
2023-01-20T21:47:14.759Z,54.00
2023-01-20T21:50:00.207Z,54.30
2023-01-20T21:52:42.249Z,54.60
2023-01-20T21:55:10.076Z,54.00
2023-01-20T21:57:36.938Z,54.20
2023-01-20T22:00:04.752Z,54.40
2023-01-20T22:02:31.320Z,54.00
2023-01-20T22:04:57.934Z,54.30
2023-01-20T22:07:24.563Z,54.60
2023-01-20T22:09:51.149Z,54.20
2023-01-20T22:12:17.821Z,54.20
2023-01-20T22:14:44.408Z,54.40
2023-01-20T22:17:11.590Z,54.10
2023-01-20T22:19:38.275Z,54.30
2023-01-20T22:22:04.985Z,54.50
2023-01-20T22:24:31.675Z,54.30
2023-01-20T22:26:58.328Z,53.90
2023-01-20T22:29:25.156Z,54.20
2023-01-20T22:31:52.951Z,54.40
2023-01-20T22:34:19.876Z,54.30
2023-01-20T22:36:49.155Z,54.40
2023-01-20T22:39:15.967Z,54.40
2023-01-20T22:41:42.867Z,54.10
2023-01-20T22:44:09.515Z,54.20
2023-01-20T22:46:36.346Z,54.40
2023-01-20T22:49:03.108Z,54.30
2023-01-20T22:51:30.099Z,54.20
2023-01-20T22:53:57.800Z,54.10
2023-01-20T22:56:25.822Z,54.40
2023-01-20T22:58:52.603Z,54.20
2023-01-20T23:01:23.518Z,54.20
2023-01-20T23:03:59.644Z,54.50
2023-01-20T23:06:27.001Z,54.20
2023-01-20T23:08:53.597Z,54.40
2023-01-20T23:11:21.431Z,54.60
2023-01-20T23:13:48.279Z,54.20
2023-01-20T23:16:17.537Z,54.20
2023-01-20T23:18:44.815Z,54.30
2023-01-20T23:21:11.603Z,54.40
2023-01-20T23:23:38.210Z,54.40
2023-01-20T23:26:06.645Z,54.40
2023-01-20T23:28:33.585Z,54.20
2023-01-20T23:31:04.649Z,54.20
2023-01-20T23:33:31.702Z,54.20
2023-01-20T23:36:05.427Z,54.40
2023-01-20T23:38:32.059Z,54.00
2023-01-20T23:40:58.759Z,54.40
2023-01-20T23:43:25.445Z,54.40
2023-01-20T23:45:52.226Z,54.00
2023-01-20T23:48:18.896Z,54.10
2023-01-20T23:50:45.736Z,54.40
2023-01-20T23:53:12.682Z,54.20
2023-01-20T23:55:39.328Z,54.00
2023-01-20T23:58:06.038Z,54.10
